createdAt,value
2022-12-22T00:00:02.644Z,99922.85
2022-12-22T00:03:28.780Z,99922.44
2022-12-22T00:06:18.243Z,99921.00
2022-12-22T00:09:07.272Z,99927.46
2022-12-22T00:11:56.887Z,99926.19
2022-12-22T00:14:46.978Z,99933.48
2022-12-22T00:17:43.056Z,99927.31
2022-12-22T00:20:38.022Z,99927.02
2022-12-22T00:23:29.895Z,99922.66
2022-12-22T00:26:19.203Z,99915.89
2022-12-22T00:29:08.709Z,99910.33
2022-12-22T00:31:58.215Z,99903.64
2022-12-22T00:34:48.653Z,99904.97
2022-12-22T00:37:37.783Z,99898.20
2022-12-22T00:40:36.818Z,99895.38
2022-12-22T00:43:26.783Z,99896.86
2022-12-22T00:46:17.365Z,99895.80
2022-12-22T00:49:07.735Z,99898.09
2022-12-22T00:51:56.979Z,99895.73
2022-12-22T00:54:46.088Z,99890.02
2022-12-22T00:57:38.341Z,99892.88
2022-12-22T01:00:35.529Z,99886.63
2022-12-22T01:03:28.722Z,99880.08
2022-12-22T01:06:20.456Z,99882.20
2022-12-22T01:09:09.717Z,99887.68
2022-12-22T01:11:59.535Z,99888.76
2022-12-22T01:14:48.780Z,99889.57
2022-12-22T01:17:38.180Z,99879.66
2022-12-22T01:20:28.998Z,99884.77
2022-12-22T01:23:18.664Z,99886.86
2022-12-22T01:26:07.676Z,99895.30
2022-12-22T01:28:57.364Z,99900.54
2022-12-22T01:31:49.685Z,99897.63
2022-12-22T01:34:38.813Z,99893.91
2022-12-22T01:37:27.759Z,99895.85
2022-12-22T01:40:16.774Z,99891.86
2022-12-22T01:43:05.776Z,99887.29
2022-12-22T01:45:56.564Z,99886.33
2022-12-22T01:48:48.403Z,99891.47
2022-12-22T01:51:40.500Z,99885.50
2022-12-22T01:54:30.996Z,99895.62
2022-12-22T01:57:20.196Z,99886.98
2022-12-22T02:00:09.608Z,99887.38
2022-12-22T02:03:01.595Z,99881.16
2022-12-22T02:05:57.421Z,99879.19
2022-12-22T02:08:51.899Z,99880.09
2022-12-22T02:11:48.408Z,99888.29
2022-12-22T02:14:45.880Z,99889.84
2022-12-22T02:17:40.012Z,99893.77
2022-12-22T02:20:57.268Z,99888.69
2022-12-22T02:24:12.287Z,99888.21
2022-12-22T02:27:08.197Z,99888.10
2022-12-22T02:30:00.766Z,99883.55
2022-12-22T02:32:54.692Z,99877.55
2022-12-22T02:35:44.467Z,99874.22
2022-12-22T02:38:41.702Z,99870.81
2022-12-22T02:41:39.159Z,99868.56
2022-12-22T02:44:41.916Z,99866.02
2022-12-22T02:47:37.648Z,99865.85
2022-12-22T02:50:39.105Z,99857.58
2022-12-22T02:53:30.074Z,99849.63
2022-12-22T02:56:22.160Z,99856.11
2022-12-22T02:59:12.128Z,99857.08
2022-12-22T03:02:05.771Z,99859.08
2022-12-22T03:04:55.767Z,99858.33
2022-12-22T03:07:44.791Z,99866.62
2022-12-22T03:10:34.451Z,99865.04
2022-12-22T03:13:24.046Z,99863.77
2022-12-22T03:16:13.413Z,99865.77
2022-12-22T03:19:02.621Z,99852.11
2022-12-22T03:21:51.650Z,99848.77
2022-12-22T03:24:41.156Z,99850.36
2022-12-22T03:27:13.229Z,99849.82
2022-12-22T03:29:45.690Z,99849.43
2022-12-22T03:32:17.435Z,99847.11
2022-12-22T03:34:49.169Z,99843.96
2022-12-22T03:37:20.853Z,99840.00
2022-12-22T03:39:52.573Z,99835.70
2022-12-22T03:42:41.392Z,99829.13
2022-12-22T03:45:30.815Z,99824.59
2022-12-22T03:48:02.590Z,99824.14
2022-12-22T03:50:34.371Z,99813.65
2022-12-22T03:53:06.740Z,99807.66
2022-12-22T03:55:38.609Z,99804.74
2022-12-22T03:58:10.233Z,99799.86
2022-12-22T04:00:42.304Z,99797.33
2022-12-22T04:03:15.274Z,99795.52
2022-12-22T04:05:47.814Z,99791.95
2022-12-22T04:08:19.541Z,99792.58
2022-12-22T04:11:08.630Z,99791.92
2022-12-22T04:13:40.458Z,99795.76
2022-12-22T04:16:12.212Z,99800.95
2022-12-22T04:18:43.835Z,99794.29
2022-12-22T04:21:15.722Z,99794.73
2022-12-22T04:23:51.132Z,99787.47
2022-12-22T04:26:24.731Z,99782.65
2022-12-22T04:28:56.748Z,99786.16
2022-12-22T04:31:28.924Z,99787.21
2022-12-22T04:34:00.817Z,99790.39
2022-12-22T04:36:32.597Z,99789.82
2022-12-22T04:39:04.619Z,99781.76
2022-12-22T04:41:36.651Z,99781.23
2022-12-22T04:44:08.843Z,99777.14
2022-12-22T04:46:40.595Z,99773.41
2022-12-22T04:49:12.203Z,99772.14
2022-12-22T04:51:43.991Z,99774.65
2022-12-22T04:54:15.930Z,99770.56
2022-12-22T04:56:47.803Z,99769.28
2022-12-22T04:59:19.700Z,99762.52
2022-12-22T05:01:51.943Z,99754.43
2022-12-22T05:04:24.175Z,99753.01
2022-12-22T05:06:55.976Z,99754.45
2022-12-22T05:09:27.662Z,99766.65
2022-12-22T05:11:59.247Z,99764.39
2022-12-22T05:14:30.883Z,99768.64
2022-12-22T05:17:02.678Z,99763.02
2022-12-22T05:19:34.624Z,99754.41
2022-12-22T05:22:06.320Z,99746.83
2022-12-22T05:24:38.399Z,99742.73
2022-12-22T05:27:11.422Z,99739.15
2022-12-22T05:29:43.207Z,99739.67
2022-12-22T05:32:15.284Z,99737.00
2022-12-22T05:34:46.979Z,99734.23
2022-12-22T05:37:18.762Z,99731.88
2022-12-22T05:39:50.633Z,99729.05
2022-12-22T05:45:23.283Z,99720.35
2022-12-22T05:47:55.244Z,99718.12
2022-12-22T05:50:27.859Z,99718.27
2022-12-22T05:53:03.728Z,99717.38
2022-12-22T05:55:35.851Z,99713.46
2022-12-22T05:58:07.659Z,99718.58
2022-12-22T06:00:39.426Z,99716.48
2022-12-22T06:03:11.976Z,99708.86
2022-12-22T06:05:44.021Z,99710.48
2022-12-22T06:08:15.738Z,99702.03
2022-12-22T06:10:47.444Z,99708.60
2022-12-22T06:13:19.540Z,99705.01
2022-12-22T06:15:51.836Z,99699.13
2022-12-22T06:18:23.679Z,99693.41
2022-12-22T06:20:55.621Z,99696.20
2022-12-22T06:23:27.726Z,99699.81
2022-12-22T06:26:02.796Z,99700.80
2022-12-22T06:28:34.754Z,99703.01
2022-12-22T06:31:06.704Z,99711.80
2022-12-22T06:33:39.114Z,99712.15
2022-12-22T06:36:12.533Z,99702.30
2022-12-22T06:38:44.704Z,99704.88
2022-12-22T06:41:36.503Z,99706.62
2022-12-22T06:44:08.635Z,99705.70
2022-12-22T06:46:40.650Z,99701.57
2022-12-22T06:49:13.073Z,99696.92
2022-12-22T06:51:44.826Z,99695.62
2022-12-22T06:54:20.853Z,99695.40
2022-12-22T06:56:57.517Z,99693.98
2022-12-22T06:59:29.773Z,99695.41
2022-12-22T07:02:01.871Z,99700.48
2022-12-22T07:04:33.981Z,99699.36
2022-12-22T07:07:05.789Z,99699.91
2022-12-22T07:09:38.460Z,99693.91
2022-12-22T07:12:10.399Z,99693.27
2022-12-22T07:14:42.137Z,99694.51
2022-12-22T07:17:14.067Z,99692.52
2022-12-22T07:19:46.137Z,99688.35
2022-12-22T07:22:17.940Z,99690.52
2022-12-22T07:24:50.182Z,99683.90
2022-12-22T07:27:22.018Z,99676.15
2022-12-22T07:29:54.001Z,99677.59
2022-12-22T07:32:25.694Z,99674.65
2022-12-22T07:35:04.759Z,99667.73
2022-12-22T07:37:37.253Z,99661.90
2022-12-22T07:40:11.436Z,99655.89
2022-12-22T07:42:46.004Z,99657.27
2022-12-22T07:45:19.571Z,99650.80
2022-12-22T07:47:51.829Z,99650.42
2022-12-22T07:50:27.985Z,99648.61
2022-12-22T07:53:02.099Z,99647.21
2022-12-22T07:55:36.968Z,99645.08
2022-12-22T07:58:09.166Z,99639.03
2022-12-22T08:00:41.180Z,99642.81
2022-12-22T08:03:13.178Z,99636.64
2022-12-22T08:05:46.288Z,99637.52
2022-12-22T08:08:18.047Z,99629.83
2022-12-22T08:10:49.780Z,99631.94
2022-12-22T08:13:21.659Z,99634.52
2022-12-22T08:15:53.589Z,99632.49
2022-12-22T08:18:25.609Z,99628.36
2022-12-22T08:20:57.509Z,99626.16
2022-12-22T08:23:29.401Z,99622.89
2022-12-22T08:26:07.247Z,99617.20
2022-12-22T08:28:45.142Z,99609.98
2022-12-22T08:31:17.199Z,99605.08
2022-12-22T08:33:49.549Z,99599.11
2022-12-22T08:36:21.784Z,99592.11
2022-12-22T08:38:54.155Z,99581.70
2022-12-22T08:41:40.000Z,99579.13
2022-12-22T08:44:12.474Z,99569.25
2022-12-22T08:46:44.623Z,99567.44
2022-12-22T08:49:16.899Z,99569.16
2022-12-22T08:51:48.979Z,99566.98
2022-12-22T08:54:22.001Z,99561.33
2022-12-22T08:56:54.111Z,99561.30
2022-12-22T08:59:25.948Z,99559.46
2022-12-22T09:01:58.313Z,99556.27
2022-12-22T09:04:30.467Z,99555.02
2022-12-22T09:07:03.682Z,99545.89
2022-12-22T09:09:36.133Z,99543.40
2022-12-22T09:12:09.343Z,99539.30
2022-12-22T09:14:41.291Z,99539.75
2022-12-22T09:17:13.580Z,99539.60
2022-12-22T09:19:45.580Z,99531.98
2022-12-22T09:22:21.763Z,99523.66
2022-12-22T09:24:57.358Z,99519.05
2022-12-22T09:27:31.334Z,99525.73
2022-12-22T09:30:03.528Z,99528.35
2022-12-22T09:32:35.685Z,99530.70
2022-12-22T09:35:08.957Z,99526.87
2022-12-22T09:37:41.047Z,99529.02
2022-12-22T09:40:14.437Z,99517.00
2022-12-22T09:42:46.341Z,99522.44
2022-12-22T09:45:20.782Z,99520.60
2022-12-22T09:47:54.488Z,99513.95
2022-12-22T09:50:28.000Z,99510.23
2022-12-22T09:53:02.411Z,99502.95
2022-12-22T09:55:41.564Z,99496.81
2022-12-22T09:58:26.188Z,99493.38
2022-12-22T10:01:12.033Z,99490.10
2022-12-22T10:03:51.783Z,99486.27
2022-12-22T10:06:30.310Z,99481.80
2022-12-22T10:09:43.936Z,99474.26
2022-12-22T10:12:07.671Z,99467.38
2022-12-22T10:14:42.687Z,99466.85
2022-12-22T10:17:28.131Z,99463.58
2022-12-22T10:20:25.363Z,99461.49
2022-12-22T10:22:59.626Z,99462.03
2022-12-22T10:26:08.858Z,99456.70
2022-12-22T10:28:29.006Z,99453.76
2022-12-22T10:31:20.787Z,99448.98
2022-12-22T10:33:54.918Z,99443.90
2022-12-22T10:36:29.998Z,99442.54
2022-12-22T10:39:05.272Z,99440.65
2022-12-22T10:41:39.314Z,99435.73
2022-12-22T10:44:21.454Z,99427.71
2022-12-22T10:46:54.994Z,99426.14
2022-12-22T10:49:31.842Z,99422.16
2022-12-22T10:52:15.747Z,99417.17
2022-12-22T10:54:48.289Z,99413.14
2022-12-22T10:57:31.694Z,99411.08
2022-12-22T11:00:23.273Z,99403.73
2022-12-22T11:02:57.845Z,99399.27
2022-12-22T11:05:30.817Z,99393.94
2022-12-22T11:08:13.757Z,99397.16
2022-12-22T11:10:46.795Z,99396.21
2022-12-22T11:13:39.050Z,99396.38
2022-12-22T11:16:19.655Z,99386.98
2022-12-22T11:19:21.571Z,99377.42
2022-12-22T11:22:01.516Z,99374.10
2022-12-22T11:24:40.425Z,99371.13
2022-12-22T11:27:28.912Z,99365.26
2022-12-22T11:30:14.228Z,99362.80
2022-12-22T11:33:03.592Z,99358.38
2022-12-22T11:35:52.303Z,99350.84
2022-12-22T11:38:38.512Z,99349.73
2022-12-22T11:41:23.067Z,99342.92
2022-12-22T11:44:09.205Z,99343.70
2022-12-22T11:46:49.702Z,99345.23
2022-12-22T11:49:44.167Z,99339.23
2022-12-22T11:52:31.027Z,99332.79
2022-12-22T11:55:12.698Z,99328.12
2022-12-22T11:57:56.822Z,99323.59
2022-12-22T12:01:11.853Z,99323.40
2022-12-22T12:03:57.989Z,99323.52
2022-12-22T12:06:42.190Z,99318.14
2022-12-22T12:09:33.595Z,99315.88
2022-12-22T12:12:13.768Z,99312.10
2022-12-22T12:14:56.831Z,99313.05
2022-12-22T12:17:30.054Z,99311.36
2022-12-22T12:20:19.137Z,99311.54
2022-12-22T12:23:08.580Z,99306.08
2022-12-22T12:25:45.299Z,99302.30
2022-12-22T12:28:25.224Z,99304.24
2022-12-22T12:31:00.385Z,99297.73
2022-12-22T12:33:43.315Z,99290.09
2022-12-22T12:36:24.506Z,99288.05
2022-12-22T12:39:07.907Z,99290.23
2022-12-22T12:41:48.256Z,99285.20
2022-12-22T12:44:24.043Z,99279.73
2022-12-22T12:47:08.002Z,99278.48
2022-12-22T12:50:22.263Z,99275.34
2022-12-22T12:53:17.032Z,99270.66
2022-12-22T12:55:57.345Z,99268.79
2022-12-22T12:58:51.619Z,99264.86
2022-12-22T13:02:01.868Z,99263.89
2022-12-22T13:05:13.594Z,99260.90
2022-12-22T13:08:29.437Z,99262.05
2022-12-22T13:15:01.372Z,99260.52
2022-12-22T13:17:49.091Z,99260.76
2022-12-22T13:20:25.875Z,99259.60
2022-12-22T13:23:00.101Z,99255.89
2022-12-22T13:25:46.410Z,99253.96
2022-12-22T13:28:21.147Z,99255.86
2022-12-22T13:30:59.222Z,99254.00
2022-12-22T13:33:37.222Z,99252.26
2022-12-22T13:36:21.424Z,99247.52
2022-12-22T13:39:02.701Z,99245.69
2022-12-22T13:41:36.508Z,99243.19
2022-12-22T13:44:13.705Z,99241.92
2022-12-22T13:46:47.292Z,99237.73
2022-12-22T13:49:51.535Z,99233.92
2022-12-22T13:52:17.467Z,99234.20
2022-12-22T13:54:49.492Z,99235.89
2022-12-22T13:57:26.140Z,99233.92
2022-12-22T13:59:58.008Z,99232.80
2022-12-22T14:02:35.324Z,99232.84
2022-12-22T14:05:10.762Z,99233.23
2022-12-22T14:07:57.869Z,99234.56
2022-12-22T14:10:38.622Z,99234.41
2022-12-22T14:13:19.214Z,99233.98
2022-12-22T14:16:02.751Z,99228.64
2022-12-22T14:18:36.905Z,99222.70
2022-12-22T14:21:10.710Z,99225.14
2022-12-22T14:23:44.501Z,99225.80
2022-12-22T14:26:21.539Z,99226.04
2022-12-22T14:28:57.062Z,99223.17
2022-12-22T14:31:28.866Z,99223.59
2022-12-22T14:34:05.346Z,99223.65
2022-12-22T14:36:45.841Z,99223.98
2022-12-22T14:39:26.083Z,99220.64
2022-12-22T14:42:00.970Z,99221.94
2022-12-22T14:44:37.724Z,99225.13
2022-12-22T14:47:18.313Z,99220.02
2022-12-22T14:49:53.948Z,99215.68
2022-12-22T14:52:36.033Z,99215.38
2022-12-22T14:55:23.941Z,99213.90
2022-12-22T14:57:59.676Z,99217.16
2022-12-22T15:00:37.881Z,99216.88
2022-12-22T15:03:31.657Z,99213.73
2022-12-22T15:06:34.248Z,99214.81
2022-12-22T15:10:12.500Z,99217.45
2022-12-22T15:12:19.936Z,99211.31
2022-12-22T15:14:52.556Z,99216.19
2022-12-22T15:17:26.520Z,99213.73
2022-12-22T15:20:00.325Z,99215.16
2022-12-22T15:22:32.549Z,99213.92
2022-12-22T15:25:07.808Z,99211.21
2022-12-22T15:27:39.749Z,99213.16
2022-12-22T15:30:14.703Z,99214.92
2022-12-22T15:32:46.915Z,99218.91
2022-12-22T15:35:22.586Z,99215.61
2022-12-22T15:37:54.376Z,99214.46
2022-12-22T15:40:27.883Z,99217.20
2022-12-22T15:42:59.698Z,99219.30
2022-12-22T15:45:32.325Z,99216.52
2022-12-22T15:48:06.056Z,99217.07
2022-12-22T15:50:42.707Z,99219.77
2022-12-22T15:53:19.820Z,99219.56
2022-12-22T15:55:54.801Z,99215.19
2022-12-22T15:58:30.481Z,99214.16
2022-12-22T16:01:03.041Z,99215.42
2022-12-22T16:03:36.027Z,99210.77
2022-12-22T16:06:14.208Z,99211.95
2022-12-22T16:08:50.342Z,99216.60
2022-12-22T16:11:22.659Z,99208.88
2022-12-22T16:13:55.131Z,99207.33
2022-12-22T16:16:27.251Z,99206.92
2022-12-22T16:18:59.186Z,99205.80
2022-12-22T16:21:33.561Z,99203.17
2022-12-22T16:24:07.366Z,99202.73
2022-12-22T16:26:39.815Z,99203.58
2022-12-22T16:29:18.216Z,99206.45
2022-12-22T16:31:50.168Z,99211.35
2022-12-22T16:34:22.152Z,99205.06
2022-12-22T16:36:54.060Z,99207.33
2022-12-22T16:39:25.915Z,99206.54
2022-12-22T16:42:00.499Z,99206.00
2022-12-22T16:47:25.455Z,99201.05
2022-12-22T16:49:57.908Z,99201.92
2022-12-22T16:52:38.679Z,99205.13
2022-12-22T16:55:17.385Z,99198.95
2022-12-22T16:57:49.617Z,99194.48
2022-12-22T17:00:24.508Z,99195.02
2022-12-22T17:02:58.537Z,99196.43
2022-12-22T17:05:44.519Z,99200.22
2022-12-22T17:08:23.397Z,99201.48
2022-12-22T17:10:57.651Z,99207.85
2022-12-22T17:13:29.641Z,99210.91
2022-12-22T17:16:01.783Z,99207.67
2022-12-22T17:18:35.962Z,99207.34
2022-12-22T17:21:07.986Z,99210.55
2022-12-22T17:23:44.258Z,99213.63
2022-12-22T17:26:18.896Z,99212.91
2022-12-22T17:28:52.272Z,99210.02
2022-12-22T17:31:26.750Z,99209.79
2022-12-22T17:33:59.170Z,99209.24
2022-12-22T17:36:39.642Z,99212.64
2022-12-22T17:39:16.515Z,99215.36
2022-12-22T17:41:54.328Z,99216.00
2022-12-22T17:44:28.728Z,99218.77
2022-12-22T17:47:00.995Z,99220.83
2022-12-22T17:49:33.116Z,99219.36
2022-12-22T17:52:05.535Z,99218.56
2022-12-22T17:54:37.438Z,99217.84
2022-12-22T17:57:16.857Z,99215.20
2022-12-22T17:59:48.755Z,99214.56
2022-12-22T18:02:24.178Z,99218.27
2022-12-22T18:04:56.722Z,99218.84
2022-12-22T18:07:29.180Z,99219.04
2022-12-22T18:10:04.672Z,99226.72
2022-12-22T18:12:36.744Z,99225.61
2022-12-22T18:15:17.692Z,99225.94
2022-12-22T18:17:49.410Z,99232.73
2022-12-22T18:20:23.478Z,99230.69
2022-12-22T18:23:02.055Z,99232.08
2022-12-22T18:25:35.589Z,99231.03
2022-12-22T18:28:13.705Z,99232.20
2022-12-22T18:30:45.752Z,99231.76
2022-12-22T18:33:17.556Z,99234.48
2022-12-22T18:35:50.175Z,99239.77
2022-12-22T18:38:28.206Z,99241.46
2022-12-22T18:41:00.478Z,99237.52
2022-12-22T18:43:32.362Z,99245.23
2022-12-22T18:46:04.107Z,99252.91
2022-12-22T18:48:35.822Z,99249.64
2022-12-22T18:51:17.539Z,99255.95
2022-12-22T18:53:50.377Z,99256.35
2022-12-22T18:56:20.585Z,99260.97
2022-12-22T18:58:52.302Z,99261.30
2022-12-22T19:01:27.164Z,99261.45
2022-12-22T19:04:00.030Z,99266.73
2022-12-22T19:06:32.217Z,99265.68
2022-12-22T19:09:04.021Z,99263.42
2022-12-22T19:11:36.910Z,99265.63
2022-12-22T19:14:15.739Z,99273.15
2022-12-22T19:16:48.643Z,99272.13
2022-12-22T19:19:22.425Z,99273.16
2022-12-22T19:21:55.214Z,99273.90
2022-12-22T19:24:27.435Z,99277.23
2022-12-22T19:26:59.458Z,99275.77
2022-12-22T19:29:32.275Z,99282.77
2022-12-22T19:32:03.215Z,99288.75
2022-12-22T19:34:36.215Z,99296.73
2022-12-22T19:37:09.442Z,99297.89
2022-12-22T19:39:41.234Z,99303.76
2022-12-22T19:42:16.318Z,99299.94
2022-12-22T19:44:48.764Z,99306.85
2022-12-22T19:47:24.369Z,99302.11
2022-12-22T19:49:57.417Z,99306.84
2022-12-22T19:52:30.276Z,99308.21
2022-12-22T19:55:02.636Z,99302.48
2022-12-22T19:57:40.908Z,99300.70
2022-12-22T20:00:22.619Z,99304.19
2022-12-22T20:02:58.914Z,99305.25
2022-12-22T20:05:35.131Z,99307.98
2022-12-22T20:08:08.016Z,99308.92
2022-12-22T20:10:43.080Z,99308.13
2022-12-22T20:13:19.133Z,99307.70
2022-12-22T20:15:51.963Z,99308.48
2022-12-22T20:18:27.538Z,99317.73
2022-12-22T20:21:04.074Z,99326.73
2022-12-22T20:23:40.400Z,99326.97
2022-12-22T20:26:19.519Z,99335.00
2022-12-22T20:28:53.889Z,99335.81
2022-12-22T20:31:27.172Z,99335.69
2022-12-22T20:34:01.239Z,99333.27
2022-12-22T20:36:35.207Z,99336.05
2022-12-22T20:39:16.561Z,99337.86
2022-12-22T20:41:52.879Z,99350.21
2022-12-22T20:44:28.212Z,99347.95
2022-12-22T20:47:01.029Z,99348.84
2022-12-22T20:49:32.801Z,99352.96
2022-12-22T20:52:05.005Z,99365.61
2022-12-22T20:54:38.031Z,99363.95
2022-12-22T20:57:14.059Z,99375.19
2022-12-22T20:59:55.591Z,99372.70
2022-12-22T21:02:29.067Z,99380.64
2022-12-22T21:05:02.294Z,99384.23
2022-12-22T21:07:34.363Z,99385.80
2022-12-22T21:10:07.433Z,99384.75
2022-12-22T21:12:39.111Z,99386.43
2022-12-22T21:15:16.405Z,99388.98
2022-12-22T21:17:52.774Z,99394.04
2022-12-22T21:20:30.812Z,99390.16
2022-12-22T21:23:02.645Z,99393.48
2022-12-22T21:25:34.724Z,99397.55
2022-12-22T21:28:10.597Z,99402.67
2022-12-22T21:30:42.444Z,99403.91
2022-12-22T21:33:15.620Z,99410.42
2022-12-22T21:35:47.594Z,99408.56
2022-12-22T21:38:21.437Z,99409.43
2022-12-22T21:40:53.589Z,99412.44
2022-12-22T21:43:25.353Z,99416.95
2022-12-22T21:45:57.554Z,99418.74
2022-12-22T21:48:29.904Z,99417.91
2022-12-22T21:51:01.710Z,99422.13
2022-12-22T21:53:33.470Z,99413.09
2022-12-22T21:56:10.751Z,99418.55
2022-12-22T21:58:42.793Z,99414.40
2022-12-22T22:01:16.505Z,99411.16
2022-12-22T22:03:49.333Z,99416.31
2022-12-22T22:06:21.202Z,99420.19
2022-12-22T22:08:53.318Z,99423.79
2022-12-22T22:11:27.383Z,99418.73
2022-12-22T22:13:59.444Z,99426.20
2022-12-22T22:16:31.286Z,99427.44
2022-12-22T22:19:03.646Z,99426.44
2022-12-22T22:21:36.149Z,99425.30
2022-12-22T22:24:09.557Z,99428.23
2022-12-22T22:26:45.964Z,99429.18
2022-12-22T22:29:17.981Z,99431.97
2022-12-22T22:31:50.045Z,99432.80
2022-12-22T22:34:21.860Z,99441.80
2022-12-22T22:36:54.565Z,99441.45
2022-12-22T22:39:26.624Z,99440.80
2022-12-22T22:41:58.456Z,99446.83
2022-12-22T22:44:30.101Z,99447.27
2022-12-22T22:47:01.867Z,99447.99
2022-12-22T22:49:33.512Z,99455.86
2022-12-22T22:52:05.683Z,99453.88
2022-12-22T22:54:37.806Z,99459.34
2022-12-22T22:57:09.913Z,99462.84
2022-12-22T22:59:41.832Z,99458.63
2022-12-22T23:02:16.142Z,99462.40
2022-12-22T23:04:48.660Z,99462.11
2022-12-22T23:07:20.460Z,99464.07
2022-12-22T23:09:52.659Z,99460.51
2022-12-22T23:12:24.497Z,99456.16
2022-12-22T23:14:56.266Z,99453.88
2022-12-22T23:17:28.007Z,99448.73
2022-12-22T23:19:59.844Z,99447.67
2022-12-22T23:22:31.587Z,99440.30
2022-12-22T23:25:03.328Z,99441.55
2022-12-22T23:27:35.258Z,99436.96
2022-12-22T23:30:09.229Z,99426.76
2022-12-22T23:32:41.008Z,99430.31
2022-12-22T23:35:13.119Z,99431.63
2022-12-22T23:37:45.014Z,99435.40
2022-12-22T23:40:50.545Z,99430.70
2022-12-22T23:43:12.092Z,99427.95
2022-12-22T23:45:44.156Z,99428.77
2022-12-22T23:48:15.866Z,99436.73
2022-12-22T23:50:49.726Z,99440.05
2022-12-22T23:53:21.733Z,99439.99
2022-12-22T23:55:53.631Z,99442.54
2022-12-22T23:58:26.123Z,99444.89
